Time;durP1;ratioP1;P1;durP2;ratioP2;P2;SDS_P1;SDS_P2;PMS_P1;PMS_P2;Temp;Humidity;BMP_temperature;BMP_pressure;BME280_temperature;BME280_humidity;BME280_pressure;Samples;Min_cycle;Max_cycle;Signal;HPM_P1;HPM_P2
2023/12/03 00:00:39;;;;;;;;;51.50;43.50;;;;;4.72;59.30;101678.72;5064474;28;45584;-65
2023/12/03 00:03:06;;;;;;;;;63.75;47.75;;;;;4.91;58.43;101710.59;5061661;28;46240;-65
2023/12/03 00:05:31;;;;;;;;;51.00;44.25;;;;;4.93;59.35;101712.41;5073051;28;45873;-65
2023/12/03 00:07:57;;;;;;;;;59.00;48.25;;;;;4.78;58.71;101684.06;5074349;27;45394;-65
2023/12/03 00:10:23;;;;;;;;;51.25;43.50;;;;;4.73;59.09;101677.88;5060665;28;45528;-65
2023/12/03 00:12:49;;;;;;;;;61.50;48.00;;;;;4.77;58.97;101684.94;5066790;28;46154;-65
2023/12/03 00:15:14;;;;;;;;;59.75;43.50;;;;;5.02;59.26;101719.50;5068166;27;45365;-64
2023/12/03 00:17:39;;;;;;;;;59.00;47.25;;;;;4.91;58.89;101705.31;5066362;28;45275;-65
2023/12/03 00:20:05;;;;;;;;;58.50;47.00;;;;;5.04;58.54;101723.03;5060071;28;45553;-65
2023/12/03 00:22:31;;;;;;;;;46.75;42.50;;;;;5.02;58.50;101716.84;5063516;28;47561;-65
2023/12/03 00:24:56;;;;;;;;;57.25;46.75;;;;;4.78;58.63;101686.72;5072004;28;45299;-65
2023/12/03 00:27:22;;;;;;;;;49.75;43.50;;;;;4.75;58.65;101673.47;5067232;28;45433;-65
2023/12/03 00:29:47;;;;;;;;;59.50;46.25;;;;;4.77;58.91;101679.66;5067904;27;45383;-65
2023/12/03 00:32:12;;;;;;;;;46.50;43.00;;;;;4.77;58.19;101670.84;5061343;28;45337;-65
2023/12/03 00:34:38;;;;;;;;;51.50;46.50;;;;;5.01;58.44;101718.63;5061020;28;45498;-65
2023/12/03 00:37:03;;;;;;;;;51.00;44.25;;;;;4.93;58.85;101703.59;5077232;28;45404;-65
2023/12/03 00:39:28;;;;;;;;;56.25;44.25;;;;;4.65;59.28;101655.78;5066289;28;45584;-65
2023/12/03 00:41:54;;;;;;;;;61.50;46.00;;;;;4.81;59.49;101686.75;5066562;28;46677;-65
2023/12/03 00:44:20;;;;;;;;;59.25;45.75;;;;;5.06;58.71;101725.69;5067509;28;51763;-65
2023/12/03 00:46:45;;;;;;;;;52.75;40.50;;;;;4.69;58.89;101654.91;5059519;28;45434;-65
2023/12/03 00:49:10;;;;;;;;;54.25;44.25;;;;;4.82;58.79;101677.91;5072655;28;45552;-65
2023/12/03 00:51:36;;;;;;;;;31.50;27.75;;;;;4.76;58.89;101671.69;5094636;27;45562;-65
2023/12/03 00:54:01;;;;;;;;;49.75;43.00;;;;;4.83;58.93;101684.13;5067398;27;45396;-65
2023/12/03 00:56:26;;;;;;;;;47.75;39.75;;;;;4.81;58.73;101678.81;5064891;28;45443;-65
2023/12/03 00:58:52;;;;;;;;;57.50;44.00;;;;;4.89;59.12;101697.34;5079470;27;45850;-65
2023/12/03 01:01:19;;;;;;;;;53.75;45.50;;;;;4.77;59.24;101681.41;5060672;28;45395;-65
2023/12/03 01:03:45;;;;;;;;;59.50;45.00;;;;;4.64;58.71;101654.00;5060726;28;45777;-65
2023/12/03 01:06:10;;;;;;;;;52.25;43.25;;;;;4.62;58.80;101659.25;5077708;28;45513;-65
2023/12/03 01:08:35;;;;;;;;;53.50;43.75;;;;;4.86;59.14;101702.66;5068249;27;45439;-65
2023/12/03 01:11:04;;;;;;;;;49.00;40.00;;;;;4.74;58.92;101669.03;5060145;28;45350;-65
2023/12/03 01:13:30;;;;;;;;;43.25;35.50;;;;;4.80;58.76;101686.72;5060441;28;45383;-65
2023/12/03 01:15:55;;;;;;;;;50.50;43.75;;;;;4.73;58.58;101675.22;5060364;28;45444;-65
2023/12/03 01:18:20;;;;;;;;;50.75;42.50;;;;;4.67;58.37;101666.38;5062049;28;45337;-65
2023/12/03 01:20:46;;;;;;;;;52.50;41.25;;;;;4.89;58.45;101702.66;5060869;27;45450;-65
2023/12/03 01:23:11;;;;;;;;;52.25;40.50;;;;;4.73;58.97;101667.28;5073095;28;45452;-65
2023/12/03 01:25:37;;;;;;;;;55.50;43.50;;;;;4.81;59.30;101680.53;5060151;27;45438;-65
2023/12/03 01:28:02;;;;;;;;;18.75;11.25;;;;;4.71;58.52;101674.34;5061027;28;45574;-64
2023/12/03 01:30:27;;;;;;;;;39.75;39.50;;;;;4.78;58.72;101678.78;5075461;28;47107;-65
2023/12/03 01:32:53;;;;;;;;;46.50;40.00;;;;;4.85;59.47;101689.41;5059143;28;45433;-65
2023/12/03 01:35:18;;;;;;;;;56.75;42.00;;;;;4.67;59.01;101661.94;5060112;28;45400;-65
2023/12/03 01:37:44;;;;;;;;;44.25;40.25;;;;;4.81;58.87;101688.47;5059924;28;45332;-64
2023/12/03 01:40:09;;;;;;;;;58.50;44.25;;;;;4.60;58.95;101668.94;5070286;28;45326;-65
2023/12/03 01:42:35;;;;;;;;;52.75;44.25;;;;;4.63;58.96;101684.84;5064863;28;45401;-65
2023/12/03 01:45:01;;;;;;;;;44.00;40.50;;;;;4.72;58.49;101683.16;5079057;28;45516;-65
2023/12/03 01:47:28;;;;;;;;;51.25;42.00;;;;;4.53;59.61;101653.94;5082983;27;45541;-65
2023/12/03 01:49:53;;;;;;;;;45.25;39.50;;;;;4.54;59.20;101653.03;5067394;28;45574;-65
2023/12/03 01:52:19;;;;;;;;;57.00;39.75;;;;;4.79;58.96;101704.38;5059903;28;45500;-65
2023/12/03 01:54:45;;;;;;;;;40.00;37.00;;;;;4.79;58.62;101701.72;5059894;28;45529;-65
2023/12/03 01:57:11;;;;;;;;;45.00;38.75;;;;;4.50;59.19;101663.59;5059587;28;45396;-65
2023/12/03 01:59:37;;;;;;;;;46.25;38.25;;;;;4.53;59.68;101668.91;5064407;28;46458;-65
2023/12/03 02:02:03;;;;;;;;;44.25;40.50;;;;;4.40;58.57;101649.44;5059127;28;45560;-65
2023/12/03 02:04:28;;;;;;;;;46.00;36.25;;;;;4.75;59.03;101706.97;5063296;28;45303;-65
2023/12/03 02:06:54;;;;;;;;;47.00;39.75;;;;;4.53;58.85;101664.50;5079658;28;45302;-64
2023/12/03 02:09:20;;;;;;;;;47.75;40.25;;;;;4.52;58.91;101668.00;5065899;27;45460;-65
2023/12/03 02:11:46;;;;;;;;;46.00;40.50;;;;;4.72;59.36;101701.66;5075160;28;45587;-64
2023/12/03 02:14:13;;;;;;;;;47.50;38.25;;;;;4.51;59.73;101671.56;5059891;28;45547;-65
2023/12/03 02:16:38;;;;;;;;;44.25;35.00;;;;;4.44;58.73;101656.50;5059570;28;45534;-65
2023/12/03 02:19:03;;;;;;;;;41.75;37.00;;;;;4.64;59.25;101696.31;5064276;28;45441;-65
2023/12/03 02:21:29;;;;;;;;;39.50;36.75;;;;;4.36;59.27;101659.09;5059327;28;45397;-65
2023/12/03 02:23:55;;;;;;;;;44.50;36.75;;;;;4.41;59.02;101660.00;5057920;28;45409;-65
2023/12/03 02:26:20;;;;;;;;;46.00;34.25;;;;;4.53;59.16;101677.72;5059297;28;45497;-65
2023/12/03 02:28:47;;;;;;;;;47.25;39.25;;;;;4.49;59.31;101670.63;5062763;28;45464;-65
2023/12/03 02:31:13;;;;;;;;;44.50;37.50;;;;;4.27;58.86;101648.44;5079635;27;45447;-65
2023/12/03 02:33:41;;;;;;;;;37.25;37.25;;;;;4.51;59.07;101683.88;5061182;27;45549;-65
2023/12/03 02:36:06;;;;;;;;;45.50;39.00;;;;;4.34;58.80;101658.19;5059186;28;45358;-65
2023/12/03 02:38:34;;;;;;;;;41.50;35.75;;;;;4.49;59.13;101690.91;5071971;28;46202;-65
2023/12/03 02:41:00;;;;;;;;;41.00;33.00;;;;;4.41;59.51;101678.53;5059010;28;45377;-65
2023/12/03 02:43:25;;;;;;;;;50.00;39.75;;;;;4.51;59.77;101691.78;5059181;28;45439;-65
2023/12/03 02:45:51;;;;;;;;;31.75;28.00;;;;;4.53;59.22;101688.31;5059078;28;45465;-65
2023/12/03 02:48:16;;;;;;;;;37.75;28.25;;;;;4.46;59.11;101673.28;5058861;28;45572;-64
2023/12/03 02:50:41;;;;;;;;;42.25;35.25;;;;;4.29;59.26;101637.88;5074343;28;45436;-65
2023/12/03 02:53:07;;;;;;;;;39.50;32.25;;;;;4.31;59.58;101641.41;5059029;28;45438;-65
2023/12/03 02:55:32;;;;;;;;;31.00;29.00;;;;;4.51;59.69;101679.47;5058788;28;45485;-65
2023/12/03 02:57:57;;;;;;;;;35.50;29.75;;;;;4.35;59.34;101651.16;5058708;28;46515;-65
2023/12/03 03:00:23;;;;;;;;;38.00;31.50;;;;;4.45;59.28;101661.78;5073570;28;45383;-64
2023/12/03 03:02:48;;;;;;;;;38.25;33.75;;;;;4.56;59.74;101682.13;5108661;27;45475;-65
2023/12/03 03:05:14;;;;;;;;;31.75;30.75;;;;;4.53;58.79;101677.72;5073835;27;45224;-64
2023/12/03 03:07:39;;;;;;;;;37.75;30.75;;;;;4.45;59.46;101652.97;5073298;28;48059;-65
2023/12/03 03:10:05;;;;;;;;;37.50;34.50;;;;;4.62;59.21;101679.53;5066882;28;45338;-64
2023/12/03 03:12:30;;;;;;;;;38.25;31.50;;;;;4.69;59.23;101685.75;5058695;28;45330;-64
2023/12/03 03:14:56;;;;;;;;;39.50;31.25;;;;;4.38;58.88;101648.53;5074375;28;46052;-65
2023/12/03 03:17:21;;;;;;;;;33.00;28.25;;;;;4.58;59.42;101683.94;5074665;28;47247;-64
2023/12/03 03:19:46;;;;;;;;;36.25;30.00;;;;;4.52;59.18;101668.00;5062405;27;45285;-65
2023/12/03 03:22:12;;;;;;;;;42.25;36.25;;;;;4.52;59.08;101675.94;5058624;28;45394;-65
2023/12/03 03:24:38;;;;;;;;;40.00;34.50;;;;;4.32;59.24;101648.47;5073251;28;45683;-64
2023/12/03 03:27:04;;;;;;;;;43.00;34.00;;;;;4.27;59.73;101641.38;5071822;28;45431;-65
2023/12/03 03:29:29;;;;;;;;;29.00;24.25;;;;;4.40;59.33;101679.38;5064821;28;45472;-64
2023/12/03 03:31:55;;;;;;;;;39.25;31.25;;;;;4.51;59.44;101702.38;5057355;28;45398;-64
2023/12/03 03:34:20;;;;;;;;;31.50;25.50;;;;;4.40;59.66;101692.59;5069439;28;45470;-64
2023/12/03 03:36:45;;;;;;;;;29.00;26.50;;;;;4.43;59.58;101707.63;5064953;27;45395;-64
2023/12/03 03:39:11;;;;;;;;;39.00;32.50;;;;;4.37;59.57;101703.13;5067110;27;45497;-64
2023/12/03 03:41:36;;;;;;;;;38.00;33.25;;;;;4.11;59.69;101654.47;5058266;28;45419;-65
2023/12/03 03:44:01;;;;;;;;;30.25;28.00;;;;;4.07;59.46;101657.06;5058501;28;45345;-64
2023/12/03 03:46:26;;;;;;;;;30.75;26.50;;;;;3.97;60.27;101643.78;5058095;28;46468;-65
2023/12/03 03:48:52;;;;;;;;;37.25;34.75;;;;;4.16;60.20;101674.78;5066228;28;49813;-64
2023/12/03 03:51:17;;;;;;;;;40.00;31.25;;;;;4.20;59.53;101660.72;5064797;28;45400;-65
2023/12/03 03:53:42;;;;;;;;;34.25;29.50;;;;;4.19;59.75;101644.84;5067351;27;45436;-64
2023/12/03 03:56:09;;;;;;;;;34.50;27.75;;;;;4.26;60.23;101642.28;5057933;28;45487;-64
2023/12/03 03:58:36;;;;;;;;;38.75;35.25;;;;;4.49;59.50;101675.03;5077119;27;45805;-64
2023/12/03 04:01:04;;;;;;;;;42.75;37.00;;;;;4.49;59.48;101673.28;5060514;28;45523;-64
2023/12/03 04:03:30;;;;;;;;;34.25;30.25;;;;;4.44;59.74;101675.00;5073771;27;45501;-64
2023/12/03 04:05:56;;;;;;;;;35.25;34.25;;;;;4.51;59.50;101682.13;5072420;28;46713;-65
2023/12/03 04:08:21;;;;;;;;;38.50;34.50;;;;;4.53;59.87;101687.44;5071614;27;45459;-64
2023/12/03 04:10:47;;;;;;;;;38.75;32.25;;;;;4.30;58.99;101650.22;5061651;27;45333;-64
2023/12/03 04:13:12;;;;;;;;;45.25;39.25;;;;;4.31;59.15;101641.41;5058151;28;45347;-64
2023/12/03 04:15:37;;;;;;;;;37.25;31.25;;;;;4.41;59.09;101670.59;5073734;28;47373;-64
2023/12/03 04:18:03;;;;;;;;;38.75;30.75;;;;;4.19;60.05;101632.53;5066675;28;45577;-64
2023/12/03 04:20:28;;;;;;;;;38.25;33.50;;;;;4.19;60.14;101639.56;5061542;28;45353;-65
2023/12/03 04:22:53;;;;;;;;;36.00;32.75;;;;;4.41;60.09;101675.88;5061474;28;45298;-64
2023/12/03 04:25:19;;;;;;;;;38.75;34.00;;;;;4.12;59.36;101630.69;5061005;28;45338;-64
2023/12/03 04:27:44;;;;;;;;;46.25;40.25;;;;;3.98;60.00;101617.38;5061135;28;45279;-65
2023/12/03 04:30:10;;;;;;;;;41.00;30.75;;;;;4.15;59.38;101656.28;5075728;28;45516;-64
2023/12/03 04:32:35;;;;;;;;;42.00;37.75;;;;;4.01;59.26;101645.56;5067146;28;45523;-65
2023/12/03 04:35:01;;;;;;;;;45.75;34.50;;;;;4.07;59.43;101649.13;5090366;27;47934;-64
2023/12/03 04:37:26;;;;;;;;;39.25;34.75;;;;;4.12;60.19;101661.53;5065365;28;45311;-65
2023/12/03 04:39:51;;;;;;;;;46.00;38.00;;;;;4.06;60.31;101650.03;5072660;28;45270;-64
2023/12/03 04:42:17;;;;;;;;;47.25;42.00;;;;;4.14;60.57;101650.06;5070348;28;45546;-64
2023/12/03 04:44:42;;;;;;;;;35.75;31.25;;;;;4.22;59.91;101674.81;5063547;27;45433;-64
2023/12/03 04:47:08;;;;;;;;;43.00;35.25;;;;;4.14;59.56;101657.13;5071495;28;45255;-64
2023/12/03 04:49:33;;;;;;;;;44.75;37.75;;;;;4.23;60.20;101678.38;5071800;27;45667;-64
2023/12/03 04:51:59;;;;;;;;;52.00;40.25;;;;;4.03;60.56;101628.88;5061249;28;45465;-64
2023/12/03 04:54:24;;;;;;;;;43.25;40.75;;;;;4.17;60.27;101659.81;5060497;28;46237;-64
2023/12/03 04:56:49;;;;;;;;;35.75;30.50;;;;;3.99;60.41;101634.09;5060679;28;45377;-64
2023/12/03 04:59:15;;;;;;;;;36.00;31.00;;;;;4.12;60.24;101648.31;5066307;28;45533;-64
2023/12/03 05:01:40;;;;;;;;;49.00;41.00;;;;;3.95;60.87;101619.97;5060755;28;45514;-64
2023/12/03 05:04:06;;;;;;;;;43.75;39.25;;;;;4.23;60.59;101663.38;5060823;28;45332;-65
2023/12/03 05:06:31;;;;;;;;;45.75;40.75;;;;;4.20;60.49;101652.78;5080387;28;45481;-64
2023/12/03 05:08:56;;;;;;;;;46.00;31.25;;;;;4.24;60.14;101646.66;5071957;27;45378;-64
2023/12/03 05:11:22;;;;;;;;;39.75;35.75;;;;;4.18;60.59;101643.09;5059263;28;45442;-64
2023/12/03 05:13:47;;;;;;;;;47.75;39.50;;;;;4.11;60.22;101631.59;5088456;27;46363;-64
2023/12/03 05:16:12;;;;;;;;;36.75;31.50;;;;;4.27;60.36;101657.25;5071877;27;45393;-64
2023/12/03 05:18:38;;;;;;;;;45.50;41.00;;;;;4.30;59.90;101652.88;5069943;27;45367;-64
2023/12/03 05:21:04;;;;;;;;;40.50;33.25;;;;;4.09;60.67;101628.00;5060479;28;45283;-65
2023/12/03 05:23:29;;;;;;;;;44.25;36.75;;;;;4.17;60.62;101646.59;5060132;28;45556;-64
2023/12/03 05:25:57;;;;;;;;;40.75;34.75;;;;;4.02;60.30;101635.00;5060286;28;45359;-65
2023/12/03 05:28:23;;;;;;;;;44.00;34.00;;;;;4.13;60.29;101644.81;5059016;28;45351;-64
2023/12/03 05:30:49;;;;;;;;;45.50;40.75;;;;;3.80;60.55;101598.72;5060499;28;45765;-64
2023/12/03 05:33:14;;;;;;;;;42.75;37.25;;;;;3.81;60.69;101604.00;5060172;28;46451;-64
2023/12/03 05:35:39;;;;;;;;;35.25;33.25;;;;;3.74;60.73;101593.38;5060229;28;45505;-64
2023/12/03 05:38:05;;;;;;;;;41.50;32.50;;;;;3.78;61.02;101597.81;5073837;28;45436;-64
2023/12/03 05:40:30;;;;;;;;;51.00;40.00;;;;;4.11;60.91;101654.47;5069947;28;45761;-64
2023/12/03 05:42:55;;;;;;;;;44.50;35.75;;;;;3.94;60.79;101617.31;5075415;28;47264;-64
2023/12/03 05:45:21;;;;;;;;;44.50;36.25;;;;;3.92;61.06;101611.16;5060354;28;45415;-64
2023/12/03 05:47:46;;;;;;;;;46.25;36.00;;;;;3.95;61.08;101601.50;5061896;28;45393;-64
2023/12/03 05:50:11;;;;;;;;;46.75;34.75;;;;;3.93;60.62;101600.59;5069053;28;45349;-64
2023/12/03 05:52:37;;;;;;;;;36.25;32.25;;;;;4.10;60.80;101637.72;5064997;27;45366;-64
2023/12/03 05:55:02;;;;;;;;;38.75;30.00;;;;;4.03;61.01;101623.56;5059791;28;45441;-64
2023/12/03 05:57:28;;;;;;;;;42.50;34.25;;;;;3.98;61.26;101616.50;5088281;27;45384;-64
2023/12/03 05:59:53;;;;;;;;;39.50;37.50;;;;;3.90;61.04;101608.50;5064284;28;45515;-64
2023/12/03 06:02:19;;;;;;;;;54.50;37.25;;;;;3.93;60.95;101619.09;5059612;28;45420;-64
2023/12/03 06:04:45;;;;;;;;;39.75;34.25;;;;;3.90;60.56;101616.41;5065622;28;45838;-64
2023/12/03 06:07:11;;;;;;;;;38.75;30.50;;;;;3.88;61.11;101611.13;5079733;27;45519;-64
2023/12/03 06:09:36;;;;;;;;;38.00;35.75;;;;;3.92;61.27;101616.44;5064345;28;45325;-64
2023/12/03 06:12:02;;;;;;;;;42.00;33.00;;;;;3.82;61.10;101616.34;5059409;28;45623;-65
2023/12/03 06:14:27;;;;;;;;;39.75;37.00;;;;;3.79;61.09;101610.13;5059360;28;45278;-65
2023/12/03 06:16:52;;;;;;;;;38.00;32.50;;;;;3.79;61.41;101611.03;5058317;28;45374;-64
2023/12/03 06:19:18;;;;;;;;;42.75;39.25;;;;;4.01;61.11;101641.19;5061141;28;45385;-64
2023/12/03 06:21:44;;;;;;;;;38.75;34.25;;;;;3.84;61.55;101622.53;5059393;28;45571;-64
2023/12/03 06:24:09;;;;;;;;;34.00;30.50;;;;;3.79;62.07;101596.94;5074827;28;45488;-64
2023/12/03 06:26:34;;;;;;;;;42.25;35.00;;;;;3.70;61.20;101589.81;5075027;28;45452;-64
2023/12/03 06:29:00;;;;;;;;;37.00;33.00;;;;;3.86;61.66;101612.00;5059640;28;45586;-64
2023/12/03 06:31:25;;;;;;;;;47.75;41.00;;;;;3.70;61.99;101582.78;5072773;28;45518;-64
2023/12/03 06:33:51;;;;;;;;;34.00;29.25;;;;;3.75;61.77;101588.09;5062139;28;46167;-64
2023/12/03 06:36:16;;;;;;;;;38.75;31.50;;;;;3.82;61.77;101591.69;5068128;28;45357;-64
2023/12/03 06:38:41;;;;;;;;;35.25;31.00;;;;;3.83;62.38;101590.81;5061614;28;45365;-64
2023/12/03 06:41:07;;;;;;;;;44.75;37.00;;;;;3.76;61.72;101586.34;5063681;28;47465;-64
2023/12/03 06:43:32;;;;;;;;;39.50;33.25;;;;;3.98;62.01;101627.94;5059418;28;45577;-64
2023/12/03 06:45:59;;;;;;;;;34.25;30.00;;;;;3.87;61.88;101603.16;5072380;28;45505;-64
2023/12/03 06:48:24;;;;;;;;;39.25;33.75;;;;;3.83;61.63;101596.09;5059346;28;46745;-64
2023/12/03 06:50:49;;;;;;;;;33.50;28.00;;;;;3.72;62.28;101585.44;5069007;28;45492;-65
2023/12/03 06:53:15;;;;;;;;;33.75;29.00;;;;;3.91;61.30;101612.91;5059005;28;45394;-64
2023/12/03 06:55:40;;;;;;;;;44.00;40.00;;;;;3.79;61.69;101583.72;5058965;28;45383;-64
2023/12/03 06:58:06;;;;;;;;;43.25;35.75;;;;;3.99;61.75;101607.69;5061452;28;45346;-64
2023/12/03 07:00:31;;;;;;;;;43.75;34.25;;;;;3.90;62.02;101597.91;5062395;28;45660;-64
2023/12/03 07:02:56;;;;;;;;;38.75;33.50;;;;;4.06;61.72;101628.91;5058867;28;45339;-65
2023/12/03 07:05:22;;;;;;;;;43.00;40.25;;;;;3.92;61.80;101608.50;5063302;28;45595;-66
2023/12/03 07:07:48;;;;;;;;;37.00;31.00;;;;;3.93;62.05;101608.53;5058547;28;45568;-66
2023/12/03 07:10:31;;;;;;;;;37.50;31.00;;;;;3.85;61.67;101589.06;5064707;28;45303;-67
2023/12/03 07:12:56;;;;;;;;;37.75;31.25;;;;;3.87;61.81;101575.00;5054526;28;45522;-67
2023/12/03 07:15:22;;;;;;;;;37.00;32.00;;;;;4.24;62.18;101643.13;5055781;28;45295;-67
2023/12/03 07:17:47;;;;;;;;;44.50;34.25;;;;;4.20;61.56;101633.41;5040272;28;45380;-67
2023/12/03 07:20:12;;;;;;;;;38.75;28.50;;;;;4.08;61.15;101611.28;5049629;28;47000;-68
2023/12/03 07:22:39;;;;;;;;;41.25;34.50;;;;;4.25;61.88;101636.97;5056499;28;45338;-68
2023/12/03 07:25:05;;;;;;;;;33.50;24.50;;;;;4.01;61.62;101600.63;5062425;28;45325;-68
2023/12/03 07:27:30;;;;;;;;;40.50;31.50;;;;;4.11;61.25;101631.59;5058456;27;45385;-67
2023/12/03 07:29:56;;;;;;;;;38.25;28.00;;;;;4.20;61.54;101643.97;5044931;28;46379;-67
2023/12/03 07:32:26;;;;;;;;;37.50;34.75;;;;;4.23;61.17;101641.38;5051857;28;46019;-67
2023/12/03 07:34:52;;;;;;;;;17.50;11.25;;;;;3.83;61.87;101590.81;5034780;28;45462;-67
2023/12/03 07:37:17;;;;;;;;;35.00;30.25;;;;;3.90;60.82;101604.06;5036308;28;45505;-68
2023/12/03 07:39:43;;;;;;;;;36.00;33.00;;;;;3.82;60.61;101613.69;5045049;28;45372;-68
2023/12/03 07:42:08;;;;;;;;;33.75;30.25;;;;;3.78;61.65;101611.91;5064212;28;45276;-67
2023/12/03 07:44:33;;;;;;;;;41.75;33.00;;;;;4.00;61.69;101657.00;5046192;28;45293;-68
2023/12/03 07:46:59;;;;;;;;;38.25;30.75;;;;;3.85;61.48;101640.13;5048531;28;45648;-66
2023/12/03 07:49:24;;;;;;;;;41.00;29.75;;;;;3.69;61.33;101606.53;5048661;28;46580;-67
2023/12/03 07:51:50;;;;;;;;;26.50;19.75;;;;;3.80;61.85;101633.06;5041728;28;45418;-68
2023/12/03 07:54:16;;;;;;;;;44.25;30.25;;;;;3.59;62.06;101608.22;5047556;28;45425;-68
2023/12/03 07:56:42;;;;;;;;;34.25;29.50;;;;;3.73;61.91;101628.59;5043266;28;45431;-68
2023/12/03 07:59:07;;;;;;;;;35.25;27.25;;;;;3.55;62.21;101598.47;5034431;28;46254;-67
2023/12/03 08:01:33;;;;;;;;;34.25;28.25;;;;;3.52;62.14;101588.78;5042114;28;45445;-66
2023/12/03 08:03:59;;;;;;;;;33.00;29.50;;;;;3.56;62.33;101600.25;5046563;28;45360;-67
2023/12/03 08:06:25;;;;;;;;;38.75;31.75;;;;;3.51;62.29;101584.34;5052473;28;45419;-67
2023/12/03 08:08:52;;;;;;;;;34.00;31.75;;;;;3.73;61.95;101607.47;5057667;28;45354;-67
2023/12/03 08:11:17;;;;;;;;;35.25;33.75;;;;;3.86;62.24;101620.78;5046174;28;45404;-67
2023/12/03 08:13:43;;;;;;;;;34.00;30.00;;;;;3.91;62.20;101620.84;5054767;28;45315;-67
2023/12/03 08:16:08;;;;;;;;;33.75;30.75;;;;;3.76;62.21;101581.06;5069837;28;45358;-66
2023/12/03 08:18:34;;;;;;;;;42.50;34.00;;;;;3.67;62.23;101558.09;5060731;28;45592;-66
2023/12/03 08:20:59;;;;;;;;;29.25;26.75;;;;;3.78;62.54;101566.13;5046805;28;45486;-66
2023/12/03 08:23:26;;;;;;;;;36.75;33.25;;;;;3.83;62.68;101573.22;5038441;28;45420;-65
2023/12/03 08:25:51;;;;;;;;;39.25;34.75;;;;;3.76;62.38;101552.91;5048830;28;45559;-66
2023/12/03 08:28:17;;;;;;;;;36.00;27.75;;;;;3.84;62.80;101572.34;5059829;28;45644;-66
2023/12/03 08:30:42;;;;;;;;;35.75;32.00;;;;;3.84;62.15;101585.56;5034152;28;46474;-65
2023/12/03 08:33:07;;;;;;;;;23.25;21.75;;;;;3.80;63.10;101588.16;5054408;28;45430;-66
2023/12/03 08:35:33;;;;;;;;;45.75;33.50;;;;;3.92;62.30;101582.09;5040810;28;45485;-66
2023/12/03 08:37:59;;;;;;;;;35.75;34.00;;;;;3.87;62.30;101580.28;5047485;28;46089;-66
2023/12/03 08:40:24;;;;;;;;;40.50;34.00;;;;;4.02;62.66;101589.22;5051838;28;45485;-65
2023/12/03 08:42:49;;;;;;;;;34.75;32.00;;;;;3.92;62.28;101569.75;5051957;28;45529;-65
2023/12/03 08:45:15;;;;;;;;;34.75;28.00;;;;;4.02;62.52;101582.16;5040502;28;50539;-66
2023/12/03 08:47:41;;;;;;;;;38.50;33.50;;;;;4.06;62.68;101591.91;5047818;28;45512;-65
2023/12/03 08:50:07;;;;;;;;;28.00;18.00;;;;;3.83;62.40;101549.44;5048284;28;45701;-65
2023/12/03 08:52:32;;;;;;;;;38.50;31.25;;;;;3.79;61.77;101546.75;5042483;28;45389;-65
2023/12/03 08:54:57;;;;;;;;;34.50;29.75;;;;;3.83;62.01;101560.00;5042023;28;45340;-66
2023/12/03 08:57:23;;;;;;;;;45.00;34.00;;;;;4.08;62.78;101579.59;5054210;28;45383;-65
2023/12/03 08:59:50;;;;;;;;;37.00;31.00;;;;;4.16;62.55;101589.31;5053563;28;45335;-66
2023/12/03 09:02:16;;;;;;;;;36.50;34.75;;;;;3.82;62.79;101542.38;5041000;28;45367;-66
2023/12/03 09:04:41;;;;;;;;;31.25;27.00;;;;;3.87;62.95;101551.22;5045541;28;45415;-66
2023/12/03 09:07:07;;;;;;;;;40.00;36.75;;;;;4.17;62.02;101597.25;5054096;28;45489;-66
2023/12/03 09:09:32;;;;;;;;;32.50;27.75;;;;;3.91;62.62;101549.50;5052635;28;45387;-66
2023/12/03 09:11:58;;;;;;;;;34.50;30.50;;;;;3.85;62.33;101549.47;5040943;28;45336;-65
2023/12/03 09:14:25;;;;;;;;;32.50;23.50;;;;;3.87;62.96;101547.72;5045353;28;45481;-66
2023/12/03 09:16:51;;;;;;;;;34.00;28.50;;;;;3.83;61.89;101540.66;5045343;28;45493;-65
2023/12/03 09:19:16;;;;;;;;;31.50;27.00;;;;;3.87;62.50;101556.50;5040258;28;45312;-66
2023/12/03 09:21:41;;;;;;;;;38.25;31.00;;;;;3.85;62.09;101541.53;5053941;28;45482;-65
2023/12/03 09:24:07;;;;;;;;;31.50;26.50;;;;;4.05;62.31;101566.34;5057123;28;45499;-65
2023/12/03 09:26:32;;;;;;;;;29.50;26.50;;;;;4.03;61.61;101549.59;5039919;28;45380;-66
2023/12/03 09:28:57;;;;;;;;;25.33;23.33;;;;;4.09;61.77;101543.47;5039044;28;67368;-66
2023/12/03 09:31:23;;;;;;;;;31.50;29.75;;;;;4.19;61.63;101568.19;5028833;28;45332;-66
2023/12/03 09:33:48;;;;;;;;;31.50;27.00;;;;;4.03;61.92;101554.88;5057235;28;45315;-66
2023/12/03 09:36:13;;;;;;;;;36.75;31.00;;;;;4.05;61.85;101550.50;5023915;28;48401;-66
2023/12/03 09:38:39;;;;;;;;;26.75;23.50;;;;;4.02;62.01;101533.72;5051277;28;45334;-66
2023/12/03 09:41:08;;;;;;;;;25.75;23.75;;;;;3.95;61.97;101510.78;5050924;28;45265;-66
2023/12/03 09:43:40;;;;;;;;;20.00;17.00;;;;;4.24;61.83;101571.75;5038749;28;45459;-66
2023/12/03 09:46:13;;;;;;;;;33.25;27.75;;;;;4.14;62.33;101554.94;5040194;28;46288;-66
2023/12/03 09:48:41;;;;;;;;;29.75;22.00;;;;;4.05;61.96;101534.63;5049907;28;45387;-66
2023/12/03 09:51:09;;;;;;;;;30.25;24.75;;;;;4.23;61.98;101564.72;5052218;28;45471;-66
2023/12/03 09:53:38;;;;;;;;;35.25;30.25;;;;;4.24;62.13;101556.81;5036215;28;45410;-66
2023/12/03 09:56:04;;;;;;;;;30.75;24.50;;;;;4.16;62.64;101552.31;5039333;28;45340;-66
2023/12/03 09:58:30;;;;;;;;;27.50;24.25;;;;;4.21;61.39;101555.88;5039570;28;45253;-66
2023/12/03 10:00:57;;;;;;;;;31.00;24.00;;;;;4.22;61.81;101569.09;5039717;28;45469;-66
2023/12/03 10:03:22;;;;;;;;;18.75;13.50;;;;;4.20;61.69;101554.13;5044080;28;45643;-66
2023/12/03 10:05:49;;;;;;;;;27.75;24.75;;;;;4.39;61.83;101582.47;5059432;28;45524;-65
2023/12/03 10:08:15;;;;;;;;;31.00;24.25;;;;;4.22;61.74;101566.47;5024885;28;45400;-66
2023/12/03 10:10:46;;;;;;;;;22.00;21.25;;;;;4.26;61.30;101557.69;5028824;28;45313;-65
2023/12/03 10:13:13;;;;;;;;;36.00;26.00;;;;;4.22;61.27;101552.38;5058164;28;45497;-66
2023/12/03 10:15:39;;;;;;;;;22.50;18.00;;;;;4.42;61.48;101586.88;5044799;28;46546;-66
2023/12/03 10:18:05;;;;;;;;;25.00;24.00;;;;;4.26;61.61;101562.97;5053081;28;45513;-66
2023/12/03 10:20:31;;;;;;;;;31.75;22.75;;;;;4.47;61.62;101584.25;5039158;28;45651;-67
2023/12/03 10:22:58;;;;;;;;;31.00;28.00;;;;;4.60;61.59;101583.47;5048517;28;57439;-67
2023/12/03 10:25:34;;;;;;;;;20.75;16.75;;;;;4.40;61.04;101536.63;5037925;28;46192;-67
2023/12/03 10:28:05;;;;;;;;;26.50;23.75;;;;;4.44;61.05;101542.81;5031645;28;45844;-66
2023/12/03 10:30:31;;;;;;;;;25.25;22.75;;;;;4.44;60.58;101546.34;5052045;28;45496;-66
2023/12/03 10:32:56;;;;;;;;;30.00;27.25;;;;;4.43;61.58;101528.72;5053099;28;45353;-66
2023/12/03 10:35:23;;;;;;;;;26.25;24.75;;;;;4.80;61.14;101570.34;5046919;28;45426;-65
2023/12/03 10:37:49;;;;;;;;;24.75;17.75;;;;;4.45;60.88;101503.16;5051582;28;45307;-66
2023/12/03 10:40:15;;;;;;;;;26.50;23.75;;;;;4.57;60.30;101523.50;5057808;28;45343;-66
2023/12/03 10:42:40;;;;;;;;;28.25;26.00;;;;;4.59;61.25;101510.28;5035965;28;45730;-66
2023/12/03 10:45:12;;;;;;;;;29.25;25.50;;;;;4.83;60.53;101555.34;5038960;28;45389;-65
2023/12/03 10:47:39;;;;;;;;;26.75;25.00;;;;;4.81;61.12;101549.19;5055133;28;45356;-65
2023/12/03 10:50:06;;;;;;;;;21.75;21.50;;;;;4.82;60.61;101537.72;5058021;28;45299;-65
2023/12/03 10:52:36;;;;;;;;;31.00;23.25;;;;;4.53;60.83;101497.94;5050123;28;45371;-65
2023/12/03 10:55:06;;;;;;;;;19.75;17.75;;;;;4.77;59.91;101518.28;5037535;28;45401;-65
2023/12/03 10:57:33;;;;;;;;;27.50;19.75;;;;;4.74;60.91;101502.41;5035535;28;45832;-66
2023/12/03 11:00:10;;;;;;;;;31.50;23.50;;;;;4.82;60.32;101507.72;5027099;28;45501;-66
2023/12/03 11:02:46;;;;;;;;;27.25;24.50;;;;;4.72;61.09;101477.72;5047895;28;45616;-66
2023/12/03 11:05:28;;;;;;;;;25.25;24.00;;;;;4.67;60.43;101471.53;5046668;28;45628;-65
2023/12/03 11:07:55;;;;;;;;;25.75;22.50;;;;;4.79;60.31;101486.56;5057701;28;45862;-65
2023/12/03 11:10:20;;;;;;;;;26.25;23.75;;;;;4.75;59.82;101474.22;5034032;28;45565;-66